Time;durP1;ratioP1;P1;durP2;ratioP2;P2;SDS_P1;SDS_P2;PMS_P1;PMS_P2;Temp;Humidity;BMP_temperature;BMP_pressure;BME280_temperature;BME280_humidity;BME280_pressure;Samples;Min_cycle;Max_cycle;Signal;HPM_P1;HPM_P2
2022/05/07 00:00:16;;;;;;;7.78;5.80;;;;;;;;;;5045908;28;20024;-85
2022/05/07 00:02:41;;;;;;;9.15;5.85;;;;;;;;;;5043999;28;20041;-86
2022/05/07 00:05:07;;;;;;;8.48;6.55;;;;;;;;;;5041036;28;20116;-86
2022/05/07 00:07:32;;;;;;;10.32;5.68;;;;;;;;;;5041461;28;20028;-86
2022/05/07 00:09:58;;;;;;;10.32;5.65;;;;;;;;;;5045066;28;20025;-86
2022/05/07 00:12:23;;;;;;;8.82;5.40;;;;;;;;;;5045350;28;20389;-85
2022/05/07 00:14:49;;;;;;;8.15;5.85;;;;;;;;;;5048946;28;20029;-86
2022/05/07 00:20:09;;;;;;;9.40;5.85;;;;;;;;;;5061615;28;20048;-86
2022/05/07 00:22:50;;;;;;;9.55;6.18;;;;;;;;;;5057273;28;20027;-86
2022/05/07 00:25:16;;;;;;;8.25;5.82;;;;;;;;;;5042787;28;20040;-86
2022/05/07 00:27:41;;;;;;;10.98;6.50;;;;;;;;;;5060143;28;20020;-86
2022/05/07 00:30:07;;;;;;;11.80;6.38;;;;;;;;;;5042551;28;20024;-85
2022/05/07 00:32:33;;;;;;;9.48;5.47;;;;;;;;;;5062757;28;20024;-86
2022/05/07 00:35:06;;;;;;;11.18;6.05;;;;;;;;;;5044578;28;20036;-86
2022/05/07 00:37:39;;;;;;;8.43;5.72;;;;;;;;;;5050753;28;20029;-86
2022/05/07 00:40:06;;;;;;;7.80;5.95;;;;;;;;;;5044907;28;20033;-86
2022/05/07 00:42:31;;;;;;;8.02;5.60;;;;;;;;;;5057199;28;20080;-86
2022/05/07 00:44:57;;;;;;;9.65;5.85;;;;;;;;;;5042133;28;20047;-86
2022/05/07 00:47:32;;;;;;;7.72;5.20;;;;;;;;;;5058364;28;20036;-85
2022/05/07 00:52:44;;;;;;;9.90;5.82;;;;;;;;;;5061662;28;20082;-87
2022/05/07 00:55:11;;;;;;;8.82;6.15;;;;;;;;;;5044862;28;20024;-88
2022/05/07 00:57:39;;;;;;;9.02;5.28;;;;;;;;;;5052533;28;20450;-88
2022/05/07 01:00:07;;;;;;;13.02;5.72;;;;;;;;;;5063488;28;20025;-87
2022/05/07 01:02:33;;;;;;;8.45;5.55;;;;;;;;;;5050235;28;20400;-88
2022/05/07 01:04:59;;;;;;;9.25;5.35;;;;;;;;;;5056700;28;20037;-87
2022/05/07 01:07:24;;;;;;;9.52;5.32;;;;;;;;;;5047071;28;20564;-87
2022/05/07 01:09:50;;;;;;;8.85;5.65;;;;;;;;;;5034679;28;20021;-87
2022/05/07 01:12:19;;;;;;;9.45;5.47;;;;;;;;;;5040725;28;20475;-87
2022/05/07 01:14:45;;;;;;;7.97;5.45;;;;;;;;;;5036453;28;20021;-86
2022/05/07 01:17:10;;;;;;;8.73;5.65;;;;;;;;;;5037615;28;20663;-87
2022/05/07 01:19:36;;;;;;;7.13;5.43;;;;;;;;;;5034297;28;20045;-86
2022/05/07 01:22:04;;;;;;;9.05;5.13;;;;;;;;;;5055925;28;20116;-86
2022/05/07 01:24:30;;;;;;;9.52;5.50;;;;;;;;;;5046618;28;20033;-86
2022/05/07 01:26:55;;;;;;;7.38;5.00;;;;;;;;;;5042294;28;20104;-87
2022/05/07 01:29:21;;;;;;;8.55;5.40;;;;;;;;;;5039705;28;20021;-86
2022/05/07 01:31:46;;;;;;;8.77;5.78;;;;;;;;;;5038871;28;20071;-85
2022/05/07 01:34:12;;;;;;;9.15;5.45;;;;;;;;;;5041430;28;20505;-86
2022/05/07 01:36:37;;;;;;;7.38;5.20;;;;;;;;;;5048988;28;20025;-85
2022/05/07 01:39:03;;;;;;;8.13;5.90;;;;;;;;;;5061631;28;20020;-84
2022/05/07 01:41:28;;;;;;;7.65;5.78;;;;;;;;;;5060321;28;20509;-85
2022/05/07 01:43:54;;;;;;;8.45;5.55;;;;;;;;;;5044524;28;20132;-86
2022/05/07 01:49:03;;;;;;;9.35;5.97;;;;;;;;;;5057232;28;20025;-85
2022/05/07 01:51:29;;;;;;;13.70;7.00;;;;;;;;;;5045044;28;20025;-85
2022/05/07 01:53:55;;;;;;;9.00;5.38;;;;;;;;;;5043652;28;20096;-86
2022/05/07 01:56:21;;;;;;;8.18;5.63;;;;;;;;;;5055752;28;20025;-84
2022/05/07 01:58:48;;;;;;;10.98;5.40;;;;;;;;;;5037188;28;20545;-83
2022/05/07 02:01:14;;;;;;;8.65;5.45;;;;;;;;;;5047096;28;20079;-85
2022/05/07 02:03:40;;;;;;;9.00;6.03;;;;;;;;;;5032039;28;20431;-85
2022/05/07 02:06:05;;;;;;;8.43;5.80;;;;;;;;;;5046652;28;20032;-84
2022/05/07 02:08:31;;;;;;;7.40;5.63;;;;;;;;;;5038129;28;20037;-87
2022/05/07 02:10:59;;;;;;;7.00;5.50;;;;;;;;;;5039048;28;20051;-87
2022/05/07 02:13:25;;;;;;;10.15;5.85;;;;;;;;;;5037844;28;20029;-84
2022/05/07 02:15:51;;;;;;;6.90;5.15;;;;;;;;;;5023005;28;20038;-84
2022/05/07 02:18:16;;;;;;;7.72;5.05;;;;;;;;;;5026171;28;20049;-84
2022/05/07 02:20:41;;;;;;;7.82;5.55;;;;;;;;;;5071360;28;20025;-83
2022/05/07 02:23:28;;;;;;;6.75;4.90;;;;;;;;;;5058036;28;20028;-83
2022/05/07 02:25:54;;;;;;;8.80;5.28;;;;;;;;;;5051333;28;20021;-83
2022/05/07 02:35:03;;;;;;;7.45;5.32;;;;;;;;;;5059417;28;20028;-84
2022/05/07 02:37:29;;;;;;;13.52;5.72;;;;;;;;;;5055865;28;20089;-84
2022/05/07 02:39:54;;;;;;;10.77;5.50;;;;;;;;;;5052176;28;20513;-85
2022/05/07 02:43:03;;;;;;;10.00;6.35;;;;;;;;;;5029984;28;20021;-85
2022/05/07 02:45:30;;;;;;;9.15;5.80;;;;;;;;;;5033544;28;20037;-85
2022/05/07 02:51:21;;;;;;;11.07;6.18;;;;;;;;;;5033510;28;20103;-85
2022/05/07 02:53:47;;;;;;;15.55;5.80;;;;;;;;;;5049110;28;20033;-84
2022/05/07 02:56:12;;;;;;;7.70;6.07;;;;;;;;;;5049144;28;20048;-84
2022/05/07 02:58:37;;;;;;;8.25;5.90;;;;;;;;;;5068278;28;20048;-85
2022/05/07 03:01:03;;;;;;;10.13;6.32;;;;;;;;;;5042596;28;20044;-86
2022/05/07 03:03:29;;;;;;;8.63;5.80;;;;;;;;;;5039908;28;20106;-85
2022/05/07 03:05:55;;;;;;;9.13;5.53;;;;;;;;;;5055656;28;20024;-87
2022/05/07 03:08:21;;;;;;;8.07;5.13;;;;;;;;;;5056963;28;20021;-85
2022/05/07 03:10:47;;;;;;;6.25;5.03;;;;;;;;;;5057443;28;20033;-85
2022/05/07 03:13:12;;;;;;;8.23;5.63;;;;;;;;;;5057184;28;20025;-85
2022/05/07 03:15:38;;;;;;;8.10;5.68;;;;;;;;;;5057641;28;20033;-85
2022/05/07 03:18:03;;;;;;;7.93;5.78;;;;;;;;;;5040009;28;20047;-85
2022/05/07 03:20:29;;;;;;;8.63;5.65;;;;;;;;;;5038823;28;20024;-85
2022/05/07 03:22:54;;;;;;;12.18;6.07;;;;;;;;;;5058745;28;20032;-85
2022/05/07 03:25:19;;;;;;;10.30;5.90;;;;;;;;;;5059504;28;20379;-86
2022/05/07 03:27:45;;;;;;;7.72;5.07;;;;;;;;;;5038037;28;20055;-85
2022/05/07 03:30:11;;;;;;;7.60;5.75;;;;;;;;;;5042504;28;20033;-86
2022/05/07 03:32:36;;;;;;;7.90;5.70;;;;;;;;;;5046005;28;20035;-84
2022/05/07 03:35:02;;;;;;;10.00;5.75;;;;;;;;;;5037930;28;20024;-85
2022/05/07 03:37:28;;;;;;;7.95;5.50;;;;;;;;;;5056059;28;20108;-85
2022/05/07 03:39:54;;;;;;;8.02;5.63;;;;;;;;;;5037625;28;20052;-85
2022/05/07 03:42:20;;;;;;;11.68;5.88;;;;;;;;;;5038451;28;20124;-86
2022/05/07 03:44:49;;;;;;;8.95;5.30;;;;;;;;;;5038876;28;20060;-86
2022/05/07 03:47:14;;;;;;;11.05;6.28;;;;;;;;;;5038415;28;20726;-86
2022/05/07 03:49:39;;;;;;;8.52;5.82;;;;;;;;;;5056406;28;20048;-85
2022/05/07 03:54:49;;;;;;;8.30;5.05;;;;;;;;;;5055997;28;20052;-85
2022/05/07 03:57:16;;;;;;;8.63;5.75;;;;;;;;;;5037721;28;20020;-85
2022/05/07 03:59:42;;;;;;;11.32;5.90;;;;;;;;;;5037036;28;20024;-85
2022/05/07 04:02:08;;;;;;;9.85;5.82;;;;;;;;;;5042136;28;20032;-85
2022/05/07 04:04:33;;;;;;;10.10;6.10;;;;;;;;;;5035868;28;20031;-86
2022/05/07 04:06:59;;;;;;;8.70;6.13;;;;;;;;;;5043237;28;20055;-86
2022/05/07 04:09:24;;;;;;;11.20;5.82;;;;;;;;;;5037660;28;20016;-85
2022/05/07 04:11:50;;;;;;;10.30;5.88;;;;;;;;;;5018397;28;20029;-86
2022/05/07 04:14:15;;;;;;;7.78;5.57;;;;;;;;;;5036169;28;20132;-86
2022/05/07 04:16:40;;;;;;;7.43;5.47;;;;;;;;;;5053922;28;20060;-85
2022/05/07 04:19:06;;;;;;;10.80;6.55;;;;;;;;;;5055699;28;20017;-85
2022/05/07 04:21:34;;;;;;;9.18;6.25;;;;;;;;;;5032680;28;20092;-85
2022/05/07 04:23:59;;;;;;;14.10;6.53;;;;;;;;;;5037392;28;20025;-85
2022/05/07 04:26:25;;;;;;;9.55;6.35;;;;;;;;;;5039940;28;20366;-85
2022/05/07 04:28:50;;;;;;;9.25;6.10;;;;;;;;;;5059972;28;20021;-85
2022/05/07 04:31:17;;;;;;;7.50;5.88;;;;;;;;;;5031117;28;20079;-86
2022/05/07 04:33:42;;;;;;;8.52;5.57;;;;;;;;;;5067618;28;20044;-85
2022/05/07 04:36:07;;;;;;;9.55;6.25;;;;;;;;;;5063296;28;20044;-85
2022/05/07 04:38:33;;;;;;;13.20;6.38;;;;;;;;;;5043779;28;20037;-86
2022/05/07 04:40:58;;;;;;;10.23;6.40;;;;;;;;;;5043449;28;20088;-85
2022/05/07 04:43:24;;;;;;;10.63;6.53;;;;;;;;;;5060759;28;20103;-85
2022/05/07 04:45:49;;;;;;;11.07;6.75;;;;;;;;;;5061451;28;20036;-84
2022/05/07 04:48:14;;;;;;;8.77;5.78;;;;;;;;;;5044274;28;20028;-86
2022/05/07 04:50:40;;;;;;;12.63;6.75;;;;;;;;;;5046807;28;20017;-85
2022/05/07 04:53:05;;;;;;;12.40;6.80;;;;;;;;;;5060917;28;20029;-86
2022/05/07 04:55:32;;;;;;;10.02;6.00;;;;;;;;;;5063094;28;20025;-86
2022/05/07 04:57:57;;;;;;;8.70;6.22;;;;;;;;;;5040435;28;20097;-85
2022/05/07 05:00:23;;;;;;;9.15;6.32;;;;;;;;;;5049303;28;20100;-85
2022/05/07 05:02:48;;;;;;;11.95;7.20;;;;;;;;;;5042310;28;20036;-85
2022/05/07 05:05:14;;;;;;;9.13;6.28;;;;;;;;;;5064663;28;20033;-86
2022/05/07 05:07:40;;;;;;;9.63;6.40;;;;;;;;;;5048562;28;20021;-86
2022/05/07 05:10:05;;;;;;;10.63;6.72;;;;;;;;;;5051947;28;20052;-86
2022/05/07 05:12:32;;;;;;;10.10;6.82;;;;;;;;;;5039582;28;20040;-86
2022/05/07 05:15:08;;;;;;;9.13;6.97;;;;;;;;;;5039282;28;20482;-88
2022/05/07 05:17:34;;;;;;;10.13;7.03;;;;;;;;;;5050738;28;20033;-87
2022/05/07 05:20:01;;;;;;;12.05;6.90;;;;;;;;;;5070521;28;20028;-86
2022/05/07 05:22:27;;;;;;;13.50;9.10;;;;;;;;;;5073256;28;20060;-87
2022/05/07 05:24:52;;;;;;;14.98;9.00;;;;;;;;;;5069143;28;20040;-87
2022/05/07 05:27:19;;;;;;;10.40;7.15;;;;;;;;;;5056573;28;20033;-87
2022/05/07 05:29:44;;;;;;;12.05;7.68;;;;;;;;;;5062923;28;20029;-87
2022/05/07 05:32:10;;;;;;;13.57;8.15;;;;;;;;;;5048109;28;20044;-87
2022/05/07 05:34:35;;;;;;;10.20;7.03;;;;;;;;;;5036601;28;20016;-87
2022/05/07 05:37:03;;;;;;;13.27;7.07;;;;;;;;;;5044467;28;20446;-87
2022/05/07 05:39:28;;;;;;;12.15;6.75;;;;;;;;;;5057977;28;20024;-87
2022/05/07 05:41:53;;;;;;;11.93;6.72;;;;;;;;;;5053148;28;20040;-87
2022/05/07 05:44:19;;;;;;;10.55;7.72;;;;;;;;;;5051374;28;20031;-87
2022/05/07 05:46:44;;;;;;;9.60;6.50;;;;;;;;;;5055810;28;20029;-87
2022/05/07 05:49:10;;;;;;;9.25;7.20;;;;;;;;;;5042218;28;20025;-87
2022/05/07 05:51:35;;;;;;;13.30;8.32;;;;;;;;;;5053086;28;20033;-87
2022/05/07 05:54:01;;;;;;;11.88;6.90;;;;;;;;;;5047423;28;20124;-87
2022/05/07 05:56:26;;;;;;;11.43;6.82;;;;;;;;;;5036952;28;20068;-87
2022/05/07 05:58:52;;;;;;;13.75;7.38;;;;;;;;;;5037716;28;20039;-87
2022/05/07 06:01:17;;;;;;;11.80;7.60;;;;;;;;;;5055184;28;20032;-87
2022/05/07 06:03:42;;;;;;;11.52;7.20;;;;;;;;;;5056257;28;20029;-87
2022/05/07 06:06:08;;;;;;;12.20;6.97;;;;;;;;;;5042727;28;20374;-86
2022/05/07 06:08:33;;;;;;;16.83;8.00;;;;;;;;;;5054083;28;20021;-88
2022/05/07 06:10:59;;;;;;;13.80;7.60;;;;;;;;;;5046149;28;20024;-88
2022/05/07 06:13:25;;;;;;;14.50;7.75;;;;;;;;;;5037310;28;20051;-87
2022/05/07 06:15:51;;;;;;;9.45;7.40;;;;;;;;;;5043006;28;20100;-87
2022/05/07 06:18:25;;;;;;;11.05;7.63;;;;;;;;;;5036518;28;20025;-87
2022/05/07 06:20:51;;;;;;;14.18;7.43;;;;;;;;;;5044527;28;20009;-87
2022/05/07 06:23:16;;;;;;;11.52;7.13;;;;;;;;;;5054974;28;20108;-86
2022/05/07 06:28:26;;;;;;;12.38;7.63;;;;;;;;;;5055428;28;20131;-85
2022/05/07 06:30:52;;;;;;;12.57;7.57;;;;;;;;;;5043726;28;20123;-86
2022/05/07 06:33:18;;;;;;;11.32;7.47;;;;;;;;;;5057940;28;20025;-86
2022/05/07 06:35:44;;;;;;;8.80;6.65;;;;;;;;;;5043442;28;20117;-87
2022/05/07 06:38:10;;;;;;;10.48;6.93;;;;;;;;;;5038215;28;20036;-87
2022/05/07 06:40:40;;;;;;;10.73;6.70;;;;;;;;;;5045891;28;20017;-87
2022/05/07 06:43:06;;;;;;;8.43;6.53;;;;;;;;;;5052045;28;20079;-86
2022/05/07 06:45:32;;;;;;;10.55;6.47;;;;;;;;;;5046072;28;20029;-87
2022/05/07 06:47:58;;;;;;;10.57;6.70;;;;;;;;;;5050883;28;20085;-88
2022/05/07 06:50:23;;;;;;;10.57;6.70;;;;;;;;;;5051354;28;20032;-87
2022/05/07 06:52:49;;;;;;;10.25;6.47;;;;;;;;;;5052664;28;20036;-86
2022/05/07 06:55:16;;;;;;;9.45;6.45;;;;;;;;;;5051895;28;20021;-86
2022/05/07 06:57:42;;;;;;;8.65;6.15;;;;;;;;;;5051231;28;20071;-88
2022/05/07 07:00:12;;;;;;;10.13;6.90;;;;;;;;;;5048778;28;20118;-88
2022/05/07 07:02:38;;;;;;;11.05;6.55;;;;;;;;;;5035400;28;20028;-86
2022/05/07 07:05:04;;;;;;;7.95;6.40;;;;;;;;;;5051217;28;20024;-87
2022/05/07 07:07:30;;;;;;;16.58;6.60;;;;;;;;;;5036476;28;20120;-88
2022/05/07 07:09:56;;;;;;;10.63;6.35;;;;;;;;;;5038038;28;20032;-87
2022/05/07 07:12:22;;;;;;;8.52;6.45;;;;;;;;;;5051496;28;20037;-88
2022/05/07 07:14:48;;;;;;;10.32;6.82;;;;;;;;;;5056913;28;20032;-88
2022/05/07 07:17:16;;;;;;;8.55;5.72;;;;;;;;;;5055813;28;20046;-88
2022/05/07 07:19:42;;;;;;;10.10;6.60;;;;;;;;;;5037694;28;20070;-88
2022/05/07 07:22:08;;;;;;;10.30;5.90;;;;;;;;;;5059610;28;20021;-88
2022/05/07 07:24:33;;;;;;;12.75;5.82;;;;;;;;;;5061799;28;20017;-88
2022/05/07 07:26:59;;;;;;;10.88;5.60;;;;;;;;;;5063932;28;20036;-88
2022/05/07 07:29:25;;;;;;;7.60;5.63;;;;;;;;;;5054861;28;20104;-88
2022/05/07 07:31:51;;;;;;;14.00;6.60;;;;;;;;;;5062318;28;20111;-88
2022/05/07 07:34:17;;;;;;;8.30;5.60;;;;;;;;;;5075492;28;20100;-88
2022/05/07 07:36:44;;;;;;;11.07;6.10;;;;;;;;;;5046511;28;20068;-88
2022/05/07 07:39:12;;;;;;;12.90;6.25;;;;;;;;;;5034998;28;20021;-89
2022/05/07 07:41:38;;;;;;;8.18;6.30;;;;;;;;;;5055474;28;20017;-87
2022/05/07 07:44:04;;;;;;;10.55;6.28;;;;;;;;;;5051607;28;20024;-88
2022/05/07 07:49:13;;;;;;;9.10;6.05;;;;;;;;;;5035759;28;20108;-89
2022/05/07 07:51:39;;;;;;;10.85;6.32;;;;;;;;;;5052910;28;20021;-88
2022/05/07 07:54:04;;;;;;;11.40;6.25;;;;;;;;;;5062439;28;20066;-86
2022/05/07 07:56:30;;;;;;;10.63;6.28;;;;;;;;;;5040272;28;20036;-87
2022/05/07 07:58:56;;;;;;;12.20;6.78;;;;;;;;;;5049746;28;20016;-88
2022/05/07 08:01:21;;;;;;;11.90;7.43;;;;;;;;;;5046093;28;20039;-87
2022/05/07 08:03:47;;;;;;;10.25;7.40;;;;;;;;;;5043116;28;20021;-87
2022/05/07 08:06:12;;;;;;;13.13;6.80;;;;;;;;;;5043540;28;20041;-86
2022/05/07 08:11:40;;;;;;;12.63;7.90;;;;;;;;;;5057769;28;20444;-87
2022/05/07 08:14:09;;;;;;;16.33;7.78;;;;;;;;;;5043500;28;20099;-88
2022/05/07 08:16:35;;;;;;;10.40;7.40;;;;;;;;;;5042894;28;20188;-86
2022/05/07 08:19:03;;;;;;;10.55;6.40;;;;;;;;;;5042198;28;20103;-87
2022/05/07 08:21:29;;;;;;;9.30;6.57;;;;;;;;;;5041697;28;20051;-88
2022/05/07 08:23:54;;;;;;;13.43;7.15;;;;;;;;;;5052630;28;20020;-87
2022/05/07 08:26:21;;;;;;;9.63;7.05;;;;;;;;;;5047734;28;20047;-88
2022/05/07 08:28:47;;;;;;;11.75;8.43;;;;;;;;;;5038931;28;20073;-88
2022/05/07 08:31:12;;;;;;;12.50;7.90;;;;;;;;;;5050619;28;20024;-85
2022/05/07 08:33:41;;;;;;;12.32;8.15;;;;;;;;;;5026583;28;20021;-88
2022/05/07 08:36:08;;;;;;;12.93;7.97;;;;;;;;;;5031408;28;20151;-87
2022/05/07 08:38:34;;;;;;;9.20;7.55;;;;;;;;;;5045958;28;20032;-87
2022/05/07 08:41:00;;;;;;;12.27;7.97;;;;;;;;;;5036241;28;20088;-86
2022/05/07 08:43:30;;;;;;;12.85;8.00;;;;;;;;;;5053633;28;20124;-87
2022/05/07 08:45:56;;;;;;;10.80;8.18;;;;;;;;;;5036045;28;20091;-87
2022/05/07 08:48:22;;;;;;;12.48;8.45;;;;;;;;;;5029709;28;20041;-86
2022/05/07 08:50:48;;;;;;;11.98;7.13;;;;;;;;;;5050396;28;20059;-88
2022/05/07 08:53:13;;;;;;;10.63;8.43;;;;;;;;;;5028345;28;20049;-87
2022/05/07 08:55:39;;;;;;;13.52;8.57;;;;;;;;;;5038194;28;20098;-87
2022/05/07 08:58:44;;;;;;;12.98;7.35;;;;;;;;;;5043352;28;20090;-87
2022/05/07 09:01:23;;;;;;;10.40;7.47;;;;;;;;;;5043664;28;20086;-89
2022/05/07 09:03:49;;;;;;;13.43;7.93;;;;;;;;;;5044311;28;20025;-87
2022/05/07 09:06:26;;;;;;;12.82;7.43;;;;;;;;;;5052507;28;20491;-86
2022/05/07 09:08:54;;;;;;;11.90;7.00;;;;;;;;;;5047724;28;20025;-87
2022/05/07 09:11:20;;;;;;;11.18;6.55;;;;;;;;;;5055074;28;20060;-86
2022/05/07 09:13:46;;;;;;;13.57;7.30;;;;;;;;;;5028642;28;20037;-87
2022/05/07 09:16:12;;;;;;;6.78;4.97;;;;;;;;;;5048054;28;20025;-86
2022/05/07 09:18:37;;;;;;;10.57;5.32;;;;;;;;;;5032438;28;20028;-85
2022/05/07 09:21:19;;;;;;;5.43;3.80;;;;;;;;;;5051722;28;20036;-86
2022/05/07 09:24:00;;;;;;;8.52;4.20;;;;;;;;;;5041137;28;20024;-86
2022/05/07 09:26:47;;;;;;;5.95;4.70;;;;;;;;;;5055425;28;20029;-86
2022/05/07 09:29:14;;;;;;;7.05;4.47;;;;;;;;;;5039852;28;20446;-86
2022/05/07 09:31:42;;;;;;;8.57;4.32;;;;;;;;;;5056987;28;20025;-86
2022/05/07 09:36:58;;;;;;;8.68;5.50;;;;;;;;;;5064242;28;20039;-86
2022/05/07 09:39:31;;;;;;;7.70;5.20;;;;;;;;;;5056234;28;20471;-87
2022/05/07 09:41:58;;;;;;;8.27;4.88;;;;;;;;;;5057861;28;20082;-87
2022/05/07 09:44:26;;;;;;;9.73;4.95;;;;;;;;;;5048313;28;20040;-87
2022/05/07 09:46:52;;;;;;;6.45;3.95;;;;;;;;;;5059823;28;20150;-88
2022/05/07 09:49:19;;;;;;;8.95;4.57;;;;;;;;;;5036411;28;20040;-87
2022/05/07 09:51:46;;;;;;;10.05;4.60;;;;;;;;;;5041902;28;20060;-86
2022/05/07 09:59:39;;;;;;;7.97;3.28;;;;;;;;;;5046145;28;20111;-85
2022/05/07 10:02:19;;;;;;;4.50;3.40;;;;;;;;;;5032661;28;20100;-87
2022/05/07 10:04:58;;;;;;;7.03;3.60;;;;;;;;;;5037126;28;20488;-86
2022/05/07 10:07:43;;;;;;;9.35;3.92;;;;;;;;;;5037269;28;20040;-85
2022/05/07 10:10:11;;;;;;;4.35;3.22;;;;;;;;;;5041155;28;20018;-85
2022/05/07 10:12:38;;;;;;;6.10;3.33;;;;;;;;;;5052344;28;20059;-86
2022/05/07 10:15:08;;;;;;;4.32;3.28;;;;;;;;;;5067840;28;20137;-85
2022/05/07 10:17:35;;;;;;;9.32;3.55;;;;;;;;;;5053437;28;20028;-85
2022/05/07 10:20:09;;;;;;;4.38;2.50;;;;;;;;;;5062871;28;20444;-86
2022/05/07 10:22:36;;;;;;;3.72;2.42;;;;;;;;;;5055106;28;20025;-86
2022/05/07 10:25:13;;;;;;;4.72;2.88;;;;;;;;;;5054521;28;20096;-85
2022/05/07 10:27:41;;;;;;;4.13;2.63;;;;;;;;;;5035878;28;20017;-85
2022/05/07 10:30:14;;;;;;;6.85;2.90;;;;;;;;;;5044841;28;20095;-85
2022/05/07 10:32:56;;;;;;;7.53;2.45;;;;;;;;;;5055553;28;20025;-86
2022/05/07 10:35:45;;;;;;;6.13;2.80;;;;;;;;;;5044229;28;20029;-86
2022/05/07 10:38:10;;;;;;;10.05;2.25;;;;;;;;;;5058452;28;20115;-87
2022/05/07 10:44:05;;;;;;;3.72;2.40;;;;;;;;;;4974111;28;20034;-86
2022/05/07 10:46:43;;;;;;;2.15;1.95;;;;;;;;;;5044650;28;20035;-86
2022/05/07 10:49:09;;;;;;;3.58;2.10;;;;;;;;;;5039611;28;20028;-86
2022/05/07 10:51:56;;;;;;;4.95;2.22;;;;;;;;;;5044334;28;20024;-86
2022/05/07 10:54:22;;;;;;;5.13;2.20;;;;;;;;;;5045961;28;20031;-85
2022/05/07 10:56:55;;;;;;;10.48;2.88;;;;;;;;;;5058748;28;20033;-85
2022/05/07 10:59:22;;;;;;;4.45;2.58;;;;;;;;;;5056468;28;20561;-85
2022/05/07 11:01:48;;;;;;;5.72;2.40;;;;;;;;;;5058230;28;20029;-86
2022/05/07 11:04:18;;;;;;;4.15;2.42;;;;;;;;;;5059103;28;20048;-86
2022/05/07 11:06:47;;;;;;;3.72;2.65;;;;;;;;;;5040780;28;20028;-86
2022/05/07 11:09:24;;;;;;;7.07;2.38;;;;;;;;;;5040231;28;20074;-87
2022/05/07 11:11:52;;;;;;;4.22;2.30;;;;;;;;;;5020238;28;20052;-87
2022/05/07 11:14:25;;;;;;;3.63;2.10;;;;;;;;;;5037562;28;20032;-86
2022/05/07 11:16:55;;;;;;;4.63;1.60;;;;;;;;;;5059814;28;20033;-87
2022/05/07 11:19:30;;;;;;;4.28;1.58;;;;;;;;;;5065149;28;20088;-87
2022/05/07 11:21:56;;;;;;;2.05;1.80;;;;;;;;;;5065975;28;20055;-88
2022/05/07 11:24:25;;;;;;;3.80;1.98;;;;;;;;;;5073207;28;20029;-88
2022/05/07 11:27:11;;;;;;;5.97;2.92;;;;;;;;;;5067540;28;20013;-88
2022/05/07 11:29:36;;;;;;;2.65;1.92;;;;;;;;;;5057260;28;20025;-87
2022/05/07 11:32:07;;;;;;;2.58;2.00;;;;;;;;;;5080392;28;20039;-85
2022/05/07 11:34:33;;;;;;;3.15;2.10;;;;;;;;;;5081536;28;20070;-86
2022/05/07 11:37:16;;;;;;;6.05;2.08;;;;;;;;;;5062151;28;20084;-86
2022/05/07 11:40:25;;;;;;;2.72;1.85;;;;;;;;;;5052709;28;20032;-87
2022/05/07 11:45:25;;;;;;;4.18;2.00;;;;;;;;;;5057314;28;20021;-86
2022/05/07 11:45:37;;;;;;;2.10;1.63;;;;;;;;;;5055991;28;20033;-87
2022/05/07 11:48:45;;;;;;;4.95;2.00;;;;;;;;;;5044384;28;20039;-86
2022/05/07 11:51:10;;;;;;;5.38;1.98;;;;;;;;;;5029979;28;20033;-85
2022/05/07 11:53:36;;;;;;;6.28;2.08;;;;;;;;;;5036462;28;20075;-86
2022/05/07 11:56:09;;;;;;;4.15;2.03;;;;;;;;;;5057129;28;20071;-85
2022/05/07 11:58:40;;;;;;;3.72;2.25;;;;;;;;;;5053424;28;20036;-86
2022/05/07 12:01:20;;;;;;;4.00;2.10;;;;;;;;;;5038360;28;20449;-85
2022/05/07 12:03:46;;;;;;;1.70;1.60;;;;;;;;;;5029014;28;20388;-86
2022/05/07 12:06:31;;;;;;;3.90;2.00;;;;;;;;;;5052843;28;20068;-86
2022/05/07 12:08:56;;;;;;;3.92;1.63;;;;;;;;;;5073046;28;20032;-86
2022/05/07 12:11:22;;;;;;;4.38;1.90;;;;;;;;;;5053347;28;20022;-86
2022/05/07 12:13:48;;;;;;;2.35;1.60;;;;;;;;;;5055975;28;20086;-86
2022/05/07 12:18:58;;;;;;;4.63;2.78;;;;;;;;;;5052561;28;20048;-86
2022/05/07 12:29:51;;;;;;;4.78;1.95;;;;;;;;;;5065277;28;20031;-88
2022/05/07 12:32:19;;;;;;;6.07;1.77;;;;;;;;;;5051767;28;20478;-86
2022/05/07 12:34:44;;;;;;;4.20;1.70;;;;;;;;;;5052701;28;20380;-86
2022/05/07 12:37:10;;;;;;;4.50;1.50;;;;;;;;;;5038046;28;20055;-86
2022/05/07 12:39:36;;;;;;;3.72;1.80;;;;;;;;;;5038236;28;20143;-85
2022/05/07 12:42:11;;;;;;;4.47;1.80;;;;;;;;;;5054121;28;20025;-86
2022/05/07 12:44:37;;;;;;;3.35;1.60;;;;;;;;;;5037749;28;20016;-85
2022/05/07 12:47:05;;;;;;;3.03;1.67;;;;;;;;;;5049610;28;20028;-86
2022/05/07 12:49:31;;;;;;;8.23;1.70;;;;;;;;;;5042844;28;20021;-87
2022/05/07 12:51:56;;;;;;;2.50;1.58;;;;;;;;;;5051908;28;20032;-87
2022/05/07 12:54:22;;;;;;;5.35;1.60;;;;;;;;;;5056423;28;20475;-86
2022/05/07 12:56:48;;;;;;;2.30;1.40;;;;;;;;;;5058134;28;20017;-88
2022/05/07 12:59:14;;;;;;;2.85;1.60;;;;;;;;;;5046854;28;20017;-87
2022/05/07 13:01:40;;;;;;;5.53;1.73;;;;;;;;;;5028681;28;20031;-87
2022/05/07 13:04:05;;;;;;;4.60;1.40;;;;;;;;;;5058113;28;20111;-85
2022/05/07 13:06:30;;;;;;;3.53;1.50;;;;;;;;;;5068672;28;20050;-88
2022/05/07 13:08:58;;;;;;;2.72;1.70;;;;;;;;;;5056847;28;20047;-86
2022/05/07 13:11:24;;;;;;;2.33;1.63;;;;;;;;;;5045810;28;20032;-86
2022/05/07 13:13:50;;;;;;;4.05;1.50;;;;;;;;;;5047625;28;20028;-87
2022/05/07 13:16:17;;;;;;;4.03;1.20;;;;;;;;;;5059443;28;20027;-86
2022/05/07 13:18:43;;;;;;;2.65;1.67;;;;;;;;;;5043890;28;20036;-86
2022/05/07 13:21:08;;;;;;;3.30;1.73;;;;;;;;;;5054957;28;20174;-87
2022/05/07 13:23:34;;;;;;;6.38;1.60;;;;;;;;;;5020734;28;20386;-86
2022/05/07 13:29:34;;;;;;;4.90;1.60;;;;;;;;;;5048962;28;20036;-86
2022/05/07 13:31:59;;;;;;;4.43;1.45;;;;;;;;;;5033103;28;20017;-86
2022/05/07 13:34:25;;;;;;;2.00;1.75;;;;;;;;;;5057840;28;20348;-86
2022/05/07 13:36:50;;;;;;;2.60;1.50;;;;;;;;;;5057326;28;20025;-88
2022/05/07 13:39:16;;;;;;;2.10;1.55;;;;;;;;;;5038142;28;20028;-87
2022/05/07 13:41:41;;;;;;;4.18;1.60;;;;;;;;;;5033024;28;20017;-87
2022/05/07 13:44:13;;;;;;;3.20;1.58;;;;;;;;;;5057241;28;20055;-87
2022/05/07 13:46:38;;;;;;;2.35;1.50;;;;;;;;;;5046414;28;20025;-86
2022/05/07 13:49:04;;;;;;;3.00;1.48;;;;;;;;;;5046848;28;20171;-86
2022/05/07 13:51:30;;;;;;;2.58;1.50;;;;;;;;;;5050298;28;20029;-85
2022/05/07 13:53:57;;;;;;;4.50;1.60;;;;;;;;;;5049074;28;20024;-87
2022/05/07 13:56:23;;;;;;;4.70;1.98;;;;;;;;;;5046834;28;20098;-87
2022/05/07 13:58:48;;;;;;;6.97;2.38;;;;;;;;;;5061672;28;20041;-88
2022/05/07 14:01:14;;;;;;;4.40;1.80;;;;;;;;;;5065997;28;20039;-87
2022/05/07 14:03:39;;;;;;;2.58;1.80;;;;;;;;;;5056995;28;20032;-87
2022/05/07 14:06:05;;;;;;;4.32;2.05;;;;;;;;;;5047221;28;20025;-86
2022/05/07 14:08:31;;;;;;;3.58;1.70;;;;;;;;;;5056594;28;20040;-86
2022/05/07 14:10:56;;;;;;;7.38;1.85;;;;;;;;;;5047703;28;20089;-87
2022/05/07 14:13:22;;;;;;;3.03;1.48;;;;;;;;;;5049451;28;20044;-86
2022/05/07 14:15:47;;;;;;;2.88;1.73;;;;;;;;;;5035117;28;20105;-87
2022/05/07 14:18:12;;;;;;;5.78;2.25;;;;;;;;;;5053620;28;20031;-88
2022/05/07 14:20:38;;;;;;;3.17;1.90;;;;;;;;;;5040901;28;20125;-87
2022/05/07 14:23:03;;;;;;;5.25;1.85;;;;;;;;;;5050413;28;20040;-87
2022/05/07 14:25:29;;;;;;;4.13;1.92;;;;;;;;;;5031758;28;20025;-87
2022/05/07 14:27:54;;;;;;;4.07;1.73;;;;;;;;;;5028375;28;20030;-86
2022/05/07 14:30:20;;;;;;;5.30;2.17;;;;;;;;;;5047231;28;20032;-86
2022/05/07 14:32:45;;;;;;;4.20;1.80;;;;;;;;;;5034475;28;20112;-86
2022/05/07 14:35:11;;;;;;;3.45;1.95;;;;;;;;;;5064030;28;20036;-87
2022/05/07 14:37:37;;;;;;;3.88;1.75;;;;;;;;;;5073340;28;20047;-88
2022/05/07 14:40:28;;;;;;;6.00;2.00;;;;;;;;;;5068025;28;20029;-87
2022/05/07 14:42:49;;;;;;;4.15;1.90;;;;;;;;;;5055534;28;20024;-86
2022/05/07 14:45:14;;;;;;;6.10;2.40;;;;;;;;;;5056034;28;20375;-87
2022/05/07 14:47:40;;;;;;;2.30;2.10;;;;;;;;;;5041534;28;20103;-87
2022/05/07 14:50:07;;;;;;;3.55;1.83;;;;;;;;;;5055907;28;20048;-87
2022/05/07 14:52:32;;;;;;;8.10;2.20;;;;;;;;;;5056465;28;20108;-87
2022/05/07 14:54:57;;;;;;;6.18;2.15;;;;;;;;;;5057919;28;20090;-87
2022/05/07 14:57:23;;;;;;;3.05;2.25;;;;;;;;;;5064742;28;20071;-86
2022/05/07 14:59:48;;;;;;;2.63;1.73;;;;;;;;;;5063282;28;20036;-87
2022/05/07 15:02:15;;;;;;;4.97;1.80;;;;;;;;;;5043757;28;20086;-87
2022/05/07 15:04:40;;;;;;;4.60;2.17;;;;;;;;;;5045694;28;20029;-88
2022/05/07 15:07:06;;;;;;;3.65;2.20;;;;;;;;;;5060922;28;20410;-87
2022/05/07 15:12:15;;;;;;;3.00;1.98;;;;;;;;;;5066096;28;20048;-88
2022/05/07 15:14:41;;;;;;;2.50;2.08;;;;;;;;;;5065151;28;20017;-86
2022/05/07 15:17:06;;;;;;;5.07;2.20;;;;;;;;;;5064358;28;20056;-87
2022/05/07 15:19:32;;;;;;;3.35;2.22;;;;;;;;;;5060979;28;20016;-86
2022/05/07 15:21:57;;;;;;;4.00;2.10;;;;;;;;;;5048420;28;20025;-86
2022/05/07 15:24:23;;;;;;;13.52;2.25;;;;;;;;;;5055706;28;20025;-87
2022/05/07 15:26:48;;;;;;;6.28;2.00;;;;;;;;;;5053602;28;20553;-87
2022/05/07 15:29:13;;;;;;;2.15;1.95;;;;;;;;;;5054261;28;20021;-87
2022/05/07 15:31:39;;;;;;;28.10;2.92;;;;;;;;;;5050919;28;20242;-87
2022/05/07 15:36:49;;;;;;;3.30;1.95;;;;;;;;;;5054021;28;20044;-87
2022/05/07 15:39:15;;;;;;;3.40;2.22;;;;;;;;;;5038298;28;20124;-87
2022/05/07 15:41:40;;;;;;;5.53;1.90;;;;;;;;;;5060184;28;20470;-86